Mc Cook Ben Nelson Regional Airport
KMCK : now visible

Airfield :











YOU CAN JOIN US ON...

 
LOGIN :

Register | Disclaimer

   EN    FR    IT 

 









Legend :    VFR   Marginal VFR   IFR   Intensive IFR   Very Intensive IFR
Visi :
Ceiling :
>= 8 km
>= 3000ft
5 to 8 km
1000 to 3000 ft
1500m to 5 km
500 to 1000 ft
800 to 1500m
200 to 500 ft
< 800m
< 200 ft
Symbols :   Thunderstorms  Fog  Heavy snow  Heavy precipitations  Wind > 20 kt







- Airport Elevation : 2583 ft


KMCK - Mc Cook Ben Nelson Regional

CURRENT METAR :
  • 211553Z AUTO 04009KT 10SM CLR 19/09 A2961 RMK AO2 SLP005 T01890094 $

EXPIRED METARs :
  • 211453Z AUTO 11004KT 10SM CLR 16/09 A2962 RMK AO2 SLP012 T01560094 51013 $
  • 211353Z AUTO 04006KT 10SM CLR 14/09 A2961 RMK AO2 SLP010 T01390094 $

TAF KMCK
Valid from the 21 at 12:00 until the 22 at 12:00 UTC


211120Z 2112/2212 09006KT P6SM SCT130 BKN200
FM211500 04006KT P6SM SKC
FM211800 36008KT P6SM FEW040
FM212200 34014G22KT P6SM SCT040
FM220100 34017G27KT P6SM VCTS SCT035CB BKN100
TEMPO 2202/2206 -TSRA BKN020CB
FM220700 33017KT P6SM BKN020
KZDV FIR / North America



MET'MAP, your aeronautical weather chart ! - Copyright ORBIFLY December 2007 - Disclaimer

ORBIFLY MET'MAP TEAM :

Programming & Development : Alexandra Zaïnal
Concept & Development : Baudouin d'Aumeries
Co-Development & Prog : Marc-Olivier Méhu
Technical & hardware support : Manuel Goepfert

Contact : metmap@orbifly.com




SOURCES & CREDITS :

   NOAA       Earth
Advisory